Time;durP1;ratioP1;P1;durP2;ratioP2;P2;SDS_P1;SDS_P2;PMS_P1;PMS_P2;Temp;Humidity;BMP_temperature;BMP_pressure;BME280_temperature;BME280_humidity;BME280_pressure;Samples;Min_cycle;Max_cycle;Signal;HPM_P1;HPM_P2
2023/09/30 00:01:10;;;;;;;15.05;6.00;;;11.20;99.90;;;;;;5073107;28;20048;-29
2023/09/30 00:03:35;;;;;;;13.55;5.53;;;11.20;99.90;;;;;;5068184;28;20569;-31
2023/09/30 00:06:01;;;;;;;13.90;5.50;;;11.20;99.90;;;;;;5077491;28;20032;-28
2023/09/30 00:08:27;;;;;;;16.17;5.57;;;11.30;99.90;;;;;;5073826;28;20036;-28
2023/09/30 00:10:54;;;;;;;13.98;5.32;;;11.30;99.90;;;;;;5069995;28;20045;-28
2023/09/30 00:13:20;;;;;;;10.95;4.88;;;11.30;99.90;;;;;;5067103;28;20062;-29
2023/09/30 00:15:47;;;;;;;15.25;5.22;;;11.30;99.90;;;;;;5073591;28;20119;-28
2023/09/30 00:18:13;;;;;;;13.38;5.50;;;11.30;99.90;;;;;;5070743;28;20048;-28
2023/09/30 00:20:39;;;;;;;15.32;5.63;;;11.30;99.90;;;;;;5071346;28;20047;-28
2023/09/30 00:23:06;;;;;;;13.20;5.60;;;11.30;99.90;;;;;;5080714;28;20036;-30
2023/09/30 00:25:32;;;;;;;14.32;5.57;;;11.30;99.90;;;;;;5071014;28;20403;-29
2023/09/30 00:27:58;;;;;;;16.33;6.05;;;11.30;99.90;;;;;;5074105;28;20029;-29
2023/09/30 00:30:24;;;;;;;14.25;5.28;;;11.30;99.90;;;;;;5070495;28;20036;-29
2023/09/30 00:32:50;;;;;;;14.77;5.07;;;11.30;99.90;;;;;;5056291;28;20048;-27
2023/09/30 00:35:16;;;;;;;14.10;5.65;;;11.30;99.90;;;;;;5074425;28;20071;-29
2023/09/30 00:37:42;;;;;;;15.45;5.43;;;11.30;99.90;;;;;;5056362;28;20041;-29
2023/09/30 00:40:14;;;;;;;17.42;6.80;;;11.30;99.90;;;;;;5067244;28;20591;-29
2023/09/30 00:42:40;;;;;;;15.93;5.22;;;11.30;99.90;;;;;;5068515;28;20102;-28
2023/09/30 00:45:08;;;;;;;14.85;5.75;;;11.30;99.90;;;;;;5071634;28;20047;-30
2023/09/30 00:47:36;;;;;;;13.35;4.80;;;11.30;99.90;;;;;;5070870;28;20127;-30
2023/09/30 00:50:04;;;;;;;12.35;4.80;;;11.30;99.90;;;;;;5072468;28;20039;-28
2023/09/30 00:52:31;;;;;;;13.48;5.60;;;11.30;99.90;;;;;;5059447;28;20037;-29
2023/09/30 00:54:58;;;;;;;15.30;5.60;;;11.30;99.90;;;;;;5071613;28;20119;-28
2023/09/30 00:57:24;;;;;;;13.05;5.30;;;11.30;99.90;;;;;;5070835;28;20115;-29
2023/09/30 00:59:51;;;;;;;13.40;5.40;;;11.30;99.90;;;;;;5052307;28;20056;-28
2023/09/30 01:02:18;;;;;;;15.15;5.57;;;11.30;99.90;;;;;;5069473;28;20040;-29
2023/09/30 01:04:44;;;;;;;18.80;5.63;;;11.30;99.90;;;;;;5076575;28;20067;-31
2023/09/30 01:07:11;;;;;;;16.48;5.28;;;11.30;99.90;;;;;;5069411;28;20105;-30
2023/09/30 01:09:37;;;;;;;11.52;4.70;;;11.30;99.90;;;;;;5075535;28;20037;-30
2023/09/30 01:12:04;;;;;;;17.95;5.65;;;11.30;99.90;;;;;;5070286;28;20079;-30
2023/09/30 01:14:40;;;;;;;14.68;5.82;;;11.30;99.90;;;;;;5072129;28;20051;-30
2023/09/30 01:17:09;;;;;;;13.35;5.28;;;11.30;99.90;;;;;;5069916;28;20041;-28
2023/09/30 01:19:35;;;;;;;15.35;5.70;;;11.30;99.90;;;;;;5064495;28;20040;-29
2023/09/30 01:22:05;;;;;;;13.65;5.60;;;11.30;99.90;;;;;;5072051;28;20028;-30
2023/09/30 01:24:38;;;;;;;14.10;5.50;;;11.30;99.90;;;;;;5074988;28;20044;-29
2023/09/30 01:27:03;;;;;;;13.77;4.78;;;11.30;99.90;;;;;;5073291;28;20039;-29
2023/09/30 01:29:29;;;;;;;21.10;6.70;;;11.30;99.90;;;;;;5063691;28;20041;-28
2023/09/30 01:31:55;;;;;;;15.07;5.55;;;11.30;99.90;;;;;;5077719;28;20503;-31
2023/09/30 01:34:21;;;;;;;12.02;5.57;;;11.30;99.90;;;;;;5071937;28;20048;-30
2023/09/30 01:36:46;;;;;;;15.38;5.72;;;11.30;99.90;;;;;;5073883;28;20041;-29
2023/09/30 01:39:13;;;;;;;14.70;6.25;;;11.30;99.90;;;;;;5073995;28;20052;-29
2023/09/30 01:41:40;;;;;;;11.93;5.15;;;11.30;99.90;;;;;;5070131;28;20115;-29
2023/09/30 01:44:06;;;;;;;13.75;5.47;;;11.30;99.90;;;;;;5073232;28;20043;-28
2023/09/30 01:46:32;;;;;;;13.82;5.20;;;11.30;99.90;;;;;;5063447;28;20040;-29
2023/09/30 01:48:57;;;;;;;15.40;6.53;;;11.30;99.90;;;;;;5074514;28;20055;-30
2023/09/30 01:51:23;;;;;;;11.15;5.57;;;11.30;99.90;;;;;;5078003;28;20123;-28
2023/09/30 01:53:49;;;;;;;14.55;5.55;;;11.30;99.90;;;;;;5079365;28;20079;-29
2023/09/30 01:56:15;;;;;;;13.18;6.20;;;11.30;99.90;;;;;;5079570;28;20072;-28
2023/09/30 01:58:41;;;;;;;11.00;5.70;;;11.30;99.90;;;;;;5075691;28;20543;-28
2023/09/30 02:01:08;;;;;;;12.70;5.05;;;11.30;99.90;;;;;;5076005;28;20120;-28
2023/09/30 02:03:33;;;;;;;13.80;6.05;;;11.30;99.90;;;;;;5077119;28;20044;-29
2023/09/30 02:05:59;;;;;;;10.65;5.70;;;11.20;99.90;;;;;;5070770;28;20037;-28
2023/09/30 02:08:25;;;;;;;17.58;6.32;;;11.30;99.90;;;;;;5079097;28;20079;-29
2023/09/30 02:10:51;;;;;;;12.20;5.63;;;11.30;99.90;;;;;;5062386;28;20040;-28
2023/09/30 02:13:17;;;;;;;11.00;5.80;;;11.30;99.90;;;;;;5076748;28;20155;-28
2023/09/30 02:15:43;;;;;;;14.52;5.97;;;11.20;99.90;;;;;;5074928;28;20086;-29
2023/09/30 02:18:09;;;;;;;13.32;6.55;;;11.30;99.90;;;;;;5077740;28;20032;-28
2023/09/30 02:20:39;;;;;;;11.50;5.55;;;11.30;99.90;;;;;;5077008;28;20051;-28
2023/09/30 02:23:10;;;;;;;17.42;5.88;;;11.20;99.90;;;;;;5078418;28;20036;-28
2023/09/30 02:25:39;;;;;;;15.85;6.07;;;11.20;99.90;;;;;;5083011;28;20079;-29
2023/09/30 02:28:06;;;;;;;13.88;5.82;;;11.20;99.90;;;;;;5067094;28;20036;-29
2023/09/30 02:30:32;;;;;;;11.23;5.38;;;11.20;99.90;;;;;;5074446;28;20456;-28
2023/09/30 02:32:57;;;;;;;14.07;6.40;;;11.20;99.90;;;;;;5075257;28;20123;-28
2023/09/30 02:35:24;;;;;;;17.73;6.85;;;11.20;99.90;;;;;;5077350;28;20043;-28
2023/09/30 02:37:51;;;;;;;14.65;6.25;;;11.20;99.90;;;;;;5076725;28;20041;-29
2023/09/30 02:40:17;;;;;;;15.55;6.10;;;11.20;99.90;;;;;;5077116;28;20043;-29
2023/09/30 02:42:43;;;;;;;13.65;6.72;;;11.20;99.90;;;;;;5076180;28;20040;-30
2023/09/30 02:45:10;;;;;;;16.50;7.65;;;11.20;99.90;;;;;;5077158;28;20044;-30
2023/09/30 02:47:37;;;;;;;19.33;7.55;;;11.20;99.90;;;;;;5077275;28;20041;-29
2023/09/30 02:50:05;;;;;;;11.93;6.53;;;11.20;99.90;;;;;;5074233;28;20044;-31
2023/09/30 02:52:31;;;;;;;14.55;6.85;;;11.20;99.90;;;;;;5077822;28;20064;-31
2023/09/30 02:54:58;;;;;;;18.60;7.13;;;11.20;99.90;;;;;;5059255;28;20036;-31
2023/09/30 02:57:24;;;;;;;13.68;6.00;;;11.20;99.90;;;;;;5077904;28;20040;-28
2023/09/30 02:59:51;;;;;;;14.27;6.50;;;11.20;99.90;;;;;;5071942;28;20055;-29
2023/09/30 03:02:18;;;;;;;15.35;6.53;;;11.20;99.90;;;;;;5071910;28;20461;-29
2023/09/30 03:04:43;;;;;;;17.20;6.90;;;11.20;99.90;;;;;;5069268;28;20076;-28
2023/09/30 03:07:09;;;;;;;14.70;6.60;;;11.20;99.90;;;;;;5071573;28;20066;-28
2023/09/30 03:09:35;;;;;;;17.83;7.38;;;11.20;99.90;;;;;;5072645;28;20075;-29
2023/09/30 03:12:02;;;;;;;14.88;6.57;;;11.20;99.90;;;;;;5069209;28;20032;-28
2023/09/30 03:14:30;;;;;;;14.85;7.05;;;11.20;99.90;;;;;;5070823;28;20167;-29
2023/09/30 03:16:57;;;;;;;15.50;6.47;;;11.20;99.90;;;;;;5074653;28;20085;-29
2023/09/30 03:19:22;;;;;;;14.52;6.85;;;11.20;99.90;;;;;;5078463;28;20036;-28
2023/09/30 03:21:48;;;;;;;11.95;6.93;;;11.20;99.90;;;;;;5074212;28;20554;-28
2023/09/30 03:24:14;;;;;;;21.88;7.40;;;11.10;99.90;;;;;;5074773;28;20045;-30
2023/09/30 03:26:41;;;;;;;14.05;6.43;;;11.10;99.90;;;;;;5071817;28;20077;-31
2023/09/30 03:29:08;;;;;;;10.48;6.40;;;11.10;99.90;;;;;;5073900;28;20554;-28
2023/09/30 03:31:35;;;;;;;17.33;7.18;;;11.10;99.90;;;;;;5071108;28;20414;-30
2023/09/30 03:34:01;;;;;;;14.05;6.18;;;11.10;99.90;;;;;;5076511;28;20111;-27
2023/09/30 03:36:26;;;;;;;14.98;7.20;;;11.10;99.90;;;;;;5075442;28;20061;-28
2023/09/30 03:38:56;;;;;;;16.00;7.70;;;11.10;99.90;;;;;;5071015;28;20049;-30
2023/09/30 03:41:22;;;;;;;13.05;6.47;;;11.10;99.90;;;;;;5052539;28;20098;-29
2023/09/30 03:43:49;;;;;;;12.15;6.30;;;11.00;99.90;;;;;;5078052;28;20044;-28
2023/09/30 03:46:15;;;;;;;14.65;7.28;;;11.00;99.90;;;;;;5071120;28;20058;-30
2023/09/30 03:48:42;;;;;;;13.50;6.90;;;11.00;99.90;;;;;;5074362;28;20040;-29
2023/09/30 03:51:13;;;;;;;14.02;6.43;;;11.00;99.90;;;;;;5074519;28;20071;-31
2023/09/30 03:53:43;;;;;;;14.65;6.93;;;11.00;99.90;;;;;;5053581;28;20124;-30
2023/09/30 03:56:11;;;;;;;15.63;6.63;;;11.00;99.90;;;;;;5073705;28;20153;-28
2023/09/30 03:58:41;;;;;;;14.30;6.13;;;11.00;99.90;;;;;;5072619;28;20403;-28
2023/09/30 04:01:07;;;;;;;14.93;6.93;;;11.00;99.90;;;;;;5076411;28;20411;-28
2023/09/30 04:03:34;;;;;;;12.52;6.30;;;11.00;99.90;;;;;;5071976;28;20040;-28
2023/09/30 04:06:02;;;;;;;14.50;6.38;;;10.90;99.90;;;;;;5071490;28;20056;-27
2023/09/30 04:08:28;;;;;;;13.70;6.97;;;11.00;99.90;;;;;;5069129;28;20125;-28
2023/09/30 04:10:54;;;;;;;13.50;6.95;;;11.00;99.90;;;;;;5070227;28;20487;-29
2023/09/30 04:13:21;;;;;;;15.68;6.93;;;11.00;99.90;;;;;;5074748;28;20039;-28
2023/09/30 04:15:47;;;;;;;13.77;6.90;;;11.00;99.90;;;;;;5075147;28;20043;-28
2023/09/30 04:18:13;;;;;;;15.00;7.90;;;11.00;99.90;;;;;;5073807;28;20506;-29
2023/09/30 04:20:39;;;;;;;14.23;6.85;;;11.00;99.90;;;;;;5073562;28;20041;-28
2023/09/30 04:23:06;;;;;;;11.80;7.32;;;11.00;99.90;;;;;;5072244;28;20033;-27
2023/09/30 04:25:32;;;;;;;12.88;7.18;;;11.00;99.90;;;;;;5078179;28;20032;-32
2023/09/30 04:27:58;;;;;;;14.68;6.50;;;11.00;99.90;;;;;;5073077;28;20562;-28
2023/09/30 04:30:24;;;;;;;13.73;7.35;;;11.00;99.90;;;;;;5067208;28;20063;-28
2023/09/30 04:32:49;;;;;;;13.85;7.40;;;11.10;99.90;;;;;;5075701;28;20047;-28
2023/09/30 04:35:15;;;;;;;11.82;6.85;;;11.00;99.90;;;;;;5077619;28;20514;-28
2023/09/30 04:37:40;;;;;;;16.25;7.53;;;11.10;99.90;;;;;;5078175;28;20037;-27
2023/09/30 04:40:19;;;;;;;11.60;7.10;;;11.00;99.90;;;;;;5071090;28;20037;-27
2023/09/30 04:42:46;;;;;;;12.15;6.80;;;11.10;99.90;;;;;;5070120;28;20041;-27
2023/09/30 04:45:16;;;;;;;15.88;7.43;;;11.00;99.90;;;;;;5073615;28;20044;-29
2023/09/30 04:47:44;;;;;;;15.75;7.40;;;11.10;99.90;;;;;;5067344;28;20041;-28
2023/09/30 04:50:11;;;;;;;20.35;7.38;;;11.10;99.90;;;;;;5066379;28;20025;-28
2023/09/30 04:52:38;;;;;;;14.02;7.78;;;11.00;99.90;;;;;;5070846;28;20484;-29
2023/09/30 04:55:05;;;;;;;11.45;6.80;;;11.10;99.90;;;;;;5075918;28;20032;-28
2023/09/30 04:57:31;;;;;;;16.13;7.57;;;11.00;99.90;;;;;;5069612;28;20434;-27
2023/09/30 04:59:58;;;;;;;20.25;9.00;;;11.10;99.90;;;;;;5075588;28;20043;-30
2023/09/30 05:02:24;;;;;;;17.85;7.43;;;11.00;99.90;;;;;;5057320;28;20051;-29
2023/09/30 05:04:50;;;;;;;17.30;7.68;;;11.00;99.90;;;;;;5065206;28;20045;-28
2023/09/30 05:07:16;;;;;;;13.05;8.55;;;11.00;99.90;;;;;;5066051;28;20067;-28
2023/09/30 05:09:42;;;;;;;13.40;8.48;;;11.00;99.90;;;;;;5069116;28;20039;-29
2023/09/30 05:12:09;;;;;;;16.00;8.60;;;11.00;99.90;;;;;;5072160;28;20115;-28
2023/09/30 05:14:36;;;;;;;14.20;9.45;;;11.00;99.90;;;;;;5071500;28;20040;-30
2023/09/30 05:17:04;;;;;;;15.30;9.23;;;11.00;99.90;;;;;;5065291;28;20119;-28
2023/09/30 05:19:31;;;;;;;13.90;8.57;;;11.00;99.90;;;;;;5065839;28;20044;-28
2023/09/30 05:21:57;;;;;;;14.18;9.18;;;11.00;99.90;;;;;;5070052;28;20040;-28
2023/09/30 05:24:23;;;;;;;15.93;9.75;;;10.90;99.90;;;;;;5066181;28;20036;-29
2023/09/30 05:26:48;;;;;;;18.83;9.20;;;10.90;99.90;;;;;;5068161;28;20037;-28
2023/09/30 05:29:14;;;;;;;12.70;8.60;;;10.90;99.90;;;;;;5063143;28;20036;-29
2023/09/30 05:31:40;;;;;;;14.43;8.85;;;10.90;99.90;;;;;;5055372;28;20045;-30
2023/09/30 05:34:05;;;;;;;16.55;8.77;;;10.90;99.90;;;;;;5060299;28;20043;-28
2023/09/30 05:36:31;;;;;;;16.45;9.07;;;10.90;99.90;;;;;;5063246;28;20106;-29
2023/09/30 05:38:57;;;;;;;19.95;10.35;;;10.80;99.90;;;;;;5060299;28;20041;-28
2023/09/30 05:41:23;;;;;;;17.25;8.85;;;10.80;99.90;;;;;;5056513;28;20048;-30
2023/09/30 05:43:49;;;;;;;19.55;10.75;;;10.90;99.90;;;;;;5066023;28;20051;-29
2023/09/30 05:46:15;;;;;;;18.30;9.52;;;10.80;99.90;;;;;;5045414;28;20032;-29
2023/09/30 05:48:41;;;;;;;13.52;9.00;;;10.80;99.90;;;;;;5065375;28;20048;-28
2023/09/30 05:51:07;;;;;;;13.70;9.40;;;10.70;99.90;;;;;;5065428;28;20043;-27
2023/09/30 05:53:33;;;;;;;17.08;10.18;;;10.80;99.90;;;;;;5071727;28;20403;-28
2023/09/30 05:55:59;;;;;;;18.63;9.63;;;10.80;99.90;;;;;;5070079;28;20108;-28
2023/09/30 05:58:26;;;;;;;15.38;9.55;;;10.80;99.90;;;;;;5068680;28;20052;-29
2023/09/30 06:00:53;;;;;;;16.13;9.55;;;10.70;99.90;;;;;;5066101;28;20043;-29
2023/09/30 06:03:21;;;;;;;12.68;8.63;;;10.80;99.90;;;;;;5070316;28;20044;-28
2023/09/30 06:05:48;;;;;;;16.42;8.95;;;10.70;99.90;;;;;;5067536;28;20456;-28
2023/09/30 06:08:14;;;;;;;15.55;9.77;;;10.70;99.90;;;;;;5067401;28;20478;-31
2023/09/30 06:10:44;;;;;;;14.50;9.98;;;10.70;99.90;;;;;;5065218;28;20033;-28
2023/09/30 06:13:11;;;;;;;16.65;10.18;;;10.80;99.90;;;;;;5068049;28;20126;-28
2023/09/30 06:15:41;;;;;;;16.00;9.93;;;10.70;99.90;;;;;;5049491;28;20044;-29
2023/09/30 06:18:08;;;;;;;15.73;10.75;;;10.80;99.90;;;;;;5050316;28;20250;-28
2023/09/30 06:20:33;;;;;;;11.88;8.63;;;10.80;99.90;;;;;;5073599;28;20036;-28
2023/09/30 06:23:03;;;;;;;18.92;10.50;;;10.80;99.90;;;;;;5072053;28;20416;-29
2023/09/30 06:25:30;;;;;;;18.48;10.70;;;10.90;99.90;;;;;;5066263;28;20462;-28
2023/09/30 06:27:56;;;;;;;21.48;11.20;;;10.90;99.90;;;;;;5068362;28;20454;-29
2023/09/30 06:30:21;;;;;;;19.80;10.27;;;10.90;99.90;;;;;;5070547;28;20167;-30
2023/09/30 06:32:48;;;;;;;16.83;9.85;;;10.90;99.90;;;;;;5068799;28;20522;-29
2023/09/30 06:35:14;;;;;;;17.27;10.00;;;10.90;99.90;;;;;;5069075;28;20033;-30
2023/09/30 06:37:40;;;;;;;18.73;11.55;;;11.00;99.90;;;;;;5071531;28;20051;-28
2023/09/30 06:40:08;;;;;;;18.60;11.57;;;11.00;99.90;;;;;;5072171;28;20537;-28
2023/09/30 06:42:39;;;;;;;19.17;11.35;;;11.10;99.90;;;;;;5065223;28;20095;-29
2023/09/30 06:45:06;;;;;;;18.02;11.95;;;11.10;99.90;;;;;;5069419;28;20435;-29
2023/09/30 06:47:36;;;;;;;16.65;10.70;;;11.20;99.90;;;;;;5066158;28;20049;-27
2023/09/30 06:50:07;;;;;;;16.60;10.80;;;11.20;99.90;;;;;;5070871;28;20020;-28
2023/09/30 06:52:38;;;;;;;17.20;10.80;;;11.30;99.90;;;;;;5068852;28;20032;-28
2023/09/30 06:55:05;;;;;;;19.50;11.85;;;11.30;99.90;;;;;;5069577;28;20488;-28
2023/09/30 06:57:37;;;;;;;18.02;11.90;;;11.40;99.90;;;;;;5070374;28;20106;-29
2023/09/30 07:00:11;;;;;;;23.70;11.65;;;11.50;99.90;;;;;;5092027;28;20067;-25
2023/09/30 07:02:38;;;;;;;19.67;11.95;;;11.60;99.90;;;;;;5093099;28;20113;-27
2023/09/30 07:05:12;;;;;;;22.00;13.40;;;11.60;99.90;;;;;;5093323;28;20499;-24
2023/09/30 07:07:39;;;;;;;19.05;12.23;;;11.70;99.90;;;;;;5093336;28;20551;-24
2023/09/30 07:10:05;;;;;;;17.45;11.63;;;11.80;99.90;;;;;;5093666;28;20032;-27
2023/09/30 07:12:32;;;;;;;22.35;14.05;;;11.90;99.90;;;;;;5094745;28;20043;-26
2023/09/30 07:14:58;;;;;;;21.27;13.20;;;11.90;99.90;;;;;;5094849;28;20521;-25
2023/09/30 07:17:24;;;;;;;19.63;12.43;;;12.00;99.90;;;;;;5093589;28;20097;-25
2023/09/30 07:19:50;;;;;;;19.60;14.10;;;12.10;99.90;;;;;;5074835;28;20047;-26
2023/09/30 07:22:16;;;;;;;20.58;13.10;;;12.20;99.90;;;;;;5093439;28;20068;-26
2023/09/30 07:24:42;;;;;;;20.15;13.35;;;12.30;99.90;;;;;;5093357;28;20181;-25
2023/09/30 07:27:07;;;;;;;18.02;11.98;;;12.40;99.90;;;;;;5093352;28;20710;-26
2023/09/30 07:29:33;;;;;;;20.48;12.43;;;12.50;99.90;;;;;;5074790;28;20067;-27
2023/09/30 07:31:59;;;;;;;18.73;13.05;;;12.60;99.90;;;;;;5092178;28;20110;-26
2023/09/30 07:34:24;;;;;;;22.67;13.50;;;12.70;99.90;;;;;;5091201;28;20044;-25
2023/09/30 07:36:50;;;;;;;24.13;12.75;;;12.70;99.90;;;;;;5090898;28;20048;-27
2023/09/30 07:39:17;;;;;;;19.92;13.40;;;12.90;99.90;;;;;;5092025;28;20032;-27
2023/09/30 07:41:43;;;;;;;17.75;13.55;;;13.10;99.90;;;;;;5091136;28;20055;-25
2023/09/30 07:44:09;;;;;;;23.60;12.63;;;13.40;99.90;;;;;;5090982;28;20101;-26
2023/09/30 07:46:35;;;;;;;19.90;12.63;;;13.60;99.90;;;;;;5162743;22;20041;-33
2023/09/30 07:49:03;;;;;;;17.67;12.18;;;13.80;99.90;;;;;;5053859;28;20029;-33
2023/09/30 07:51:29;;;;;;;16.00;11.70;;;13.90;99.90;;;;;;5049912;28;20048;-35
2023/09/30 07:53:56;;;;;;;17.45;11.70;;;14.00;99.90;;;;;;5056663;28;20182;-33
2023/09/30 07:56:22;;;;;;;18.58;12.45;;;14.10;99.90;;;;;;5053190;28;20069;-34
2023/09/30 07:58:48;;;;;;;19.42;12.13;;;14.20;99.90;;;;;;5052639;28;20487;-34
2023/09/30 08:01:14;;;;;;;18.98;12.68;;;14.20;99.90;;;;;;5056961;28;20047;-33
2023/09/30 08:03:41;;;;;;;20.10;12.70;;;14.20;99.90;;;;;;5050119;28;20072;-33
2023/09/30 08:06:09;;;;;;;20.20;12.98;;;14.10;99.90;;;;;;5053254;28;20052;-33
2023/09/30 08:08:36;;;;;;;18.10;12.02;;;14.10;99.90;;;;;;5049694;28;20403;-33
2023/09/30 08:11:02;;;;;;;20.90;12.10;;;14.10;99.90;;;;;;5048708;28;20501;-33
2023/09/30 08:13:29;;;;;;;16.08;11.90;;;14.10;99.90;;;;;;5046399;28;20033;-35
2023/09/30 08:15:55;;;;;;;14.98;11.50;;;14.10;99.90;;;;;;5051879;28;20045;-34
2023/09/30 08:18:21;;;;;;;17.08;12.18;;;14.30;99.90;;;;;;5052102;28;20068;-35
2023/09/30 08:20:47;;;;;;;18.13;11.52;;;14.80;99.90;;;;;;5049926;28;20036;-34
2023/09/30 08:23:13;;;;;;;18.85;11.32;;;15.20;99.90;;;;;;5054099;28;20038;-33
2023/09/30 08:25:39;;;;;;;15.77;11.27;;;15.60;99.90;;;;;;5055940;28;20029;-35
2023/09/30 08:28:05;;;;;;;14.95;11.10;;;15.80;99.90;;;;;;5054767;28;20029;-34
2023/09/30 08:30:33;;;;;;;16.85;10.93;;;16.00;99.90;;;;;;5054455;28;20043;-33
2023/09/30 08:32:59;;;;;;;14.00;10.15;;;16.30;99.90;;;;;;5055786;28;20141;-35
2023/09/30 08:35:25;;;;;;;12.85;10.52;;;16.70;99.90;;;;;;5051169;28;20072;-34
2023/09/30 08:37:50;;;;;;;17.85;10.38;;;17.00;99.90;;;;;;5051250;28;20119;-34
2023/09/30 08:40:21;;;;;;;12.35;9.60;;;17.40;99.90;;;;;;5034015;28;20238;-34
2023/09/30 08:42:52;;;;;;;14.27;10.60;;;17.60;99.90;;;;;;5051935;28;20115;-34
2023/09/30 08:45:18;;;;;;;12.73;9.45;;;17.70;99.90;;;;;;5049370;28;20048;-34
2023/09/30 08:47:46;;;;;;;11.27;9.15;;;17.80;99.90;;;;;;5049777;28;20036;-34
2023/09/30 08:50:13;;;;;;;15.98;10.38;;;17.80;99.90;;;;;;5052681;28;20487;-34
2023/09/30 08:52:41;;;;;;;12.65;9.80;;;17.90;99.90;;;;;;5056351;28;20037;-34
2023/09/30 08:55:11;;;;;;;13.73;9.13;;;18.20;99.90;;;;;;5051562;28;20462;-35
2023/09/30 08:57:40;;;;;;;11.90;9.23;;;18.60;99.90;;;;;;5047087;28;20048;-34
2023/09/30 09:00:07;;;;;;;14.25;9.90;;;18.90;99.90;;;;;;5049178;28;20099;-34
2023/09/30 09:02:36;;;;;;;16.02;10.10;;;19.20;99.90;;;;;;5038004;28;20091;-34
2023/09/30 09:05:02;;;;;;;14.45;9.63;;;19.20;99.90;;;;;;5020133;28;20051;-35
2023/09/30 09:07:28;;;;;;;14.65;10.13;;;19.40;99.90;;;;;;5039586;28;20033;-34
2023/09/30 09:10:12;;;;;;;16.10;9.35;;;19.50;99.90;;;;;;5049419;28;20040;-34
2023/09/30 09:12:39;;;;;;;14.00;9.00;;;19.90;99.90;;;;;;5048637;28;20040;-34
2023/09/30 09:15:06;;;;;;;11.02;9.10;;;20.10;99.90;;;;;;5048427;28;20088;-34
2023/09/30 09:17:44;;;;;;;13.77;9.45;;;20.40;99.90;;;;;;5031306;28;20055;-35
2023/09/30 09:20:12;;;;;;;11.75;9.50;;;20.60;99.90;;;;;;5050628;28;20112;-34
2023/09/30 09:22:42;;;;;;;11.45;8.05;;;20.90;99.90;;;;;;5051910;28;20056;-32
2023/09/30 09:25:08;;;;;;;11.98;8.27;;;20.90;99.90;;;;;;5052071;28;20091;-32
2023/09/30 09:27:37;;;;;;;15.20;8.57;;;20.90;99.90;;;;;;5051885;28;20033;-33
2023/09/30 09:30:19;;;;;;;12.68;8.80;;;20.80;99.90;;;;;;5051891;28;20043;-33
2023/09/30 09:33:00;;;;;;;11.98;8.68;;;20.70;99.90;;;;;;5052066;28;20076;-32
2023/09/30 09:35:30;;;;;;;13.80;8.40;;;20.90;99.90;;;;;;5034228;28;20124;-32
2023/09/30 09:38:04;;;;;;;12.95;8.60;;;21.10;99.90;;;;;;5051966;28;20400;-31
2023/09/30 09:40:32;;;;;;;12.27;9.07;;;21.30;99.90;;;;;;5052176;28;20108;-33
2023/09/30 09:42:59;;;;;;;13.18;8.23;;;21.50;99.90;;;;;;5051889;28;20399;-32
2023/09/30 09:45:27;;;;;;;11.63;8.57;;;21.50;99.90;;;;;;5051975;28;20044;-32
2023/09/30 09:47:54;;;;;;;11.30;8.10;;;21.70;99.90;;;;;;5051523;28;20402;-32
2023/09/30 09:50:21;;;;;;;12.05;7.65;;;21.80;99.90;;;;;;5051966;28;20073;-33
2023/09/30 09:52:58;;;;;;;14.38;8.23;;;21.90;99.90;;;;;;5051952;28;20096;-33
2023/09/30 09:55:25;;;;;;;12.05;9.02;;;22.10;99.90;;;;;;5051999;28;20081;-33
2023/09/30 09:57:51;;;;;;;10.85;8.38;;;22.30;99.90;;;;;;5034333;28;20087;-33
2023/09/30 10:00:23;;;;;;;11.70;8.55;;;22.30;99.90;;;;;;5051791;28;20087;-32
2023/09/30 10:02:50;;;;;;;10.50;7.53;;;22.10;99.90;;;;;;5051903;28;20044;-33
2023/09/30 10:05:17;;;;;;;10.52;8.57;;;22.20;99.90;;;;;;5051654;28;20076;-33
2023/09/30 10:08:20;;;;;;;10.68;7.20;;;22.10;99.90;;;;;;5051412;28;20040;-32
2023/09/30 10:10:46;;;;;;;10.40;7.72;;;22.30;99.90;;;;;;4955190;29;20500;-31
2023/09/30 10:13:49;;;;;;;11.05;7.85;;;22.40;99.90;;;;;;5036148;28;20091;-33
2023/09/30 10:16:36;;;;;;;11.53;8.87;;;22.50;99.90;;;;;;5055857;28;20387;-34
2023/09/30 10:19:25;;;;;;;10.45;7.72;;;22.50;99.90;;;;;;5055190;28;20048;-32
2023/09/30 10:22:25;;;;;;;15.63;7.70;;;22.90;99.90;;;;;;5055520;28;20037;-32
2023/09/30 10:24:53;;;;;;;10.70;8.00;;;23.10;99.90;;;;;;5055471;28;20084;-32
2023/09/30 10:27:21;;;;;;;10.52;7.32;;;23.20;99.90;;;;;;5055409;28;20480;-32
2023/09/30 10:29:48;;;;;;;11.95;6.70;;;23.20;99.90;;;;;;5055423;28;20045;-32
2023/09/30 10:32:15;;;;;;;9.85;6.63;;;23.00;99.90;;;;;;5055232;28;20082;-33
2023/09/30 10:34:52;;;;;;;9.73;7.18;;;23.20;99.90;;;;;;5037708;28;20044;-33
2023/09/30 10:37:22;;;;;;;10.48;6.50;;;23.10;99.90;;;;;;5055036;28;20096;-33
2023/09/30 10:39:58;;;;;;;10.55;7.20;;;23.10;99.90;;;;;;5055245;28;20056;-32
2023/09/30 10:43:02;;;;;;;11.85;6.32;;;23.40;99.90;;;;;;5055209;28;20041;-33
2023/09/30 10:45:48;;;;;;;9.60;5.93;;;23.60;99.90;;;;;;4954425;29;20229;-31
2023/09/30 10:48:26;;;;;;;10.63;6.07;;;23.80;99.90;;;;;;4938362;29;20192;-32
2023/09/30 10:50:57;;;;;;;10.02;6.32;;;24.00;99.90;;;;;;5023386;28;20052;-33
2023/09/30 10:53:23;;;;;;;10.05;5.55;;;24.20;99.90;;;;;;5054692;28;20091;-35
2023/09/30 10:55:57;;;;;;;9.25;5.22;;;24.30;99.90;;;;;;5054591;28;20036;-33
2023/09/30 10:58:46;;;;;;;8.32;4.00;;;24.50;99.90;;;;;;5055258;28;20098;-31
2023/09/30 11:01:17;;;;;;;8.75;4.75;;;24.70;98.50;;;;;;5054675;28;20076;-33
2023/09/30 11:03:44;;;;;;;8.60;4.13;;;24.30;99.60;;;;;;5054589;28;20441;-31
2023/09/30 11:06:17;;;;;;;7.47;3.97;;;24.10;99.60;;;;;;5037023;28;20040;-29
2023/09/30 11:08:46;;;;;;;5.78;3.58;;;24.40;98.30;;;;;;5054898;28;20037;-31
2023/09/30 11:11:14;;;;;;;7.65;3.63;;;24.30;97.60;;;;;;5054838;28;20127;-30
2023/09/30 11:13:40;;;;;;;9.10;3.60;;;23.80;97.00;;;;;;5054638;28;20138;-32
2023/09/30 11:16:06;;;;;;;5.30;3.10;;;23.70;97.80;;;;;;5054577;28;20036;-31
2023/09/30 11:18:32;;;;;;;9.07;4.63;;;23.80;98.60;;;;;;5052405;28;20491;-30
2023/09/30 11:21:05;;;;;;;7.63;3.63;;;24.00;98.10;;;;;;5050397;28;20098;-29
2023/09/30 11:23:32;;;;;;;7.35;3.20;;;23.60;96.70;;;;;;5051144;28;20068;-29
2023/09/30 11:25:57;;;;;;;5.70;2.38;;;22.90;97.00;;;;;;5051173;28;20088;-31
2023/09/30 11:28:26;;;;;;;4.32;2.20;;;22.60;97.00;;;;;;5051095;28;20076;-30
2023/09/30 11:30:59;;;;;;;5.38;2.20;;;22.30;97.50;;;;;;5050991;28;20059;-32
2023/09/30 11:33:26;;;;;;;6.25;2.60;;;22.00;97.40;;;;;;5051107;28;20389;-32
2023/09/30 11:36:05;;;;;;;7.43;2.00;;;21.90;98.00;;;;;;5050976;28;20080;-31
2023/09/30 11:38:35;;;;;;;8.15;2.80;;;21.80;98.40;;;;;;5051449;28;20064;-32
2023/09/30 11:41:06;;;;;;;6.45;2.30;;;21.70;98.20;;;;;;5052384;28;20132;-32
2023/09/30 11:43:33;;;;;;;8.13;2.33;;;21.60;97.80;;;;;;5054165;28;20119;-32
2023/09/30 11:46:10;;;;;;;7.35;2.25;;;21.20;97.60;;;;;;5054075;28;20094;-33
2023/09/30 11:48:37;;;;;;;7.53;2.55;;;20.90;98.10;;;;;;5053979;28;20411;-33
2023/09/30 11:51:04;;;;;;;6.57;1.98;;;21.20;99.20;;;;;;5053807;28;20051;-32
2023/09/30 11:53:35;;;;;;;6.55;2.58;;;21.70;98.70;;;;;;5053884;28;20099;-33
2023/09/30 11:56:02;;;;;;;4.88;1.98;;;22.50;97.80;;;;;;5053882;28;20037;-33
2023/09/30 11:58:29;;;;;;;4.53;1.88;;;23.20;97.40;;;;;;5053554;28;20139;-33
2023/09/30 12:00:57;;;;;;;6.82;1.95;;;23.80;95.20;;;;;;5053636;28;20069;-35
2023/09/30 12:03:24;;;;;;;3.75;1.90;;;24.10;93.50;;;;;;5053874;28;20476;-33
2023/09/30 12:05:49;;;;;;;6.32;2.30;;;24.40;93.30;;;;;;5053981;28;20487;-32
2023/09/30 12:08:15;;;;;;;5.93;2.28;;;24.60;92.50;;;;;;5054108;28;20061;-32
2023/09/30 12:10:41;;;;;;;5.82;2.05;;;24.80;91.90;;;;;;5018698;28;20048;-31
2023/09/30 12:13:07;;;;;;;4.70;1.67;;;25.00;89.70;;;;;;5034953;28;20059;-32
2023/09/30 12:15:33;;;;;;;4.07;1.77;;;25.10;86.10;;;;;;5051887;28;20483;-34
2023/09/30 12:17:59;;;;;;;6.82;1.77;;;25.00;83.70;;;;;;5051523;28;20400;-31
2023/09/30 12:20:25;;;;;;;4.65;1.90;;;24.80;83.30;;;;;;5033942;28;20047;-32
2023/09/30 12:22:52;;;;;;;6.43;2.20;;;24.60;83.40;;;;;;5052065;28;20053;-32
2023/09/30 12:25:21;;;;;;;4.22;2.10;;;24.90;83.70;;;;;;5051714;28;20053;-33
2023/09/30 12:27:48;;;;;;;4.78;2.10;;;24.80;81.50;;;;;;5051909;28;20396;-33
2023/09/30 12:30:14;;;;;;;5.82;1.98;;;24.20;81.30;;;;;;5051715;28;20139;-31
2023/09/30 12:32:40;;;;;;;5.90;2.17;;;23.80;82.30;;;;;;5051555;28;20104;-33
2023/09/30 12:35:06;;;;;;;7.68;2.30;;;23.60;84.70;;;;;;5052107;28;20049;-31
2023/09/30 12:37:32;;;;;;;4.95;2.22;;;23.80;86.60;;;;;;5052648;28;20045;-32
2023/09/30 12:39:58;;;;;;;5.22;2.00;;;24.40;85.50;;;;;;5035544;28;20055;-32